Time;durP1;ratioP1;P1;durP2;ratioP2;P2;SDS_P1;SDS_P2;PMS_P1;PMS_P2;Temp;Humidity;BMP_temperature;BMP_pressure;BME280_temperature;BME280_humidity;BME280_pressure;Samples;Min_cycle;Max_cycle;Signal;HPM_P1;HPM_P2
2022/01/30 00:01:46;;;;;;;75.13;40.75;;;;;;;4.88;64.49;102045.06;5013515;28;20046;-65
2022/01/30 00:04:13;;;;;;;75.10;42.72;;;;;;;4.85;64.38;102043.38;5013475;28;20050;-66
2022/01/30 00:06:40;;;;;;;83.03;42.63;;;;;;;4.87;64.42;102030.34;5013367;28;20052;-67
2022/01/30 00:09:14;;;;;;;76.90;40.95;;;;;;;4.84;64.53;102033.00;5013678;28;20046;-66
2022/01/30 00:11:43;;;;;;;76.40;42.97;;;;;;;4.79;64.55;102019.19;5013644;28;20544;-66
2022/01/30 00:14:13;;;;;;;74.68;41.70;;;;;;;4.80;64.47;102006.16;5013666;28;20049;-66
2022/01/30 00:16:40;;;;;;;80.45;43.25;;;;;;;4.81;64.35;101996.59;5013811;28;20050;-66
2022/01/30 00:19:25;;;;;;;74.95;43.00;;;;;;;4.78;64.25;101986.25;5013533;28;20046;-66
2022/01/30 00:21:58;;;;;;;78.85;42.20;;;;;;;4.75;64.45;101987.16;5013708;28;20049;-66
2022/01/30 00:24:41;;;;;;;69.95;39.63;;;;;;;4.71;64.45;101981.13;5013182;28;20077;-66
2022/01/30 00:27:14;;;;;;;73.90;39.58;;;;;;;4.63;64.56;101969.94;5013035;28;20046;-66
2022/01/30 00:29:41;;;;;;;70.28;39.80;;;;;;;4.57;64.50;101959.59;5013545;28;20046;-66
2022/01/30 00:32:08;;;;;;;78.45;42.50;;;;;;;4.54;64.40;101955.31;5013077;28;20057;-66
2022/01/30 00:34:55;;;;;;;75.38;40.72;;;;;;;4.50;63.99;101951.03;5012963;28;20486;-66
2022/01/30 00:37:22;;;;;;;74.47;40.70;;;;;;;4.45;63.97;101944.19;5013340;28;20092;-66
2022/01/30 00:39:49;;;;;;;71.78;39.47;;;;;;;4.42;63.87;101937.28;5013317;28;20042;-66
2022/01/30 00:42:17;;;;;;;79.05;42.08;;;;;;;4.39;63.75;101934.69;5013258;28;20046;-66
2022/01/30 00:44:44;;;;;;;75.57;38.95;;;;;;;4.39;63.89;101938.19;5013087;28;20490;-66
2022/01/30 00:47:13;;;;;;;70.70;40.28;;;;;;;4.31;63.76;101929.59;5013879;28;20050;-66
2022/01/30 00:49:43;;;;;;;71.00;39.28;;;;;;;4.27;63.62;101920.13;5016659;28;20042;-66
2022/01/30 00:52:10;;;;;;;74.25;39.42;;;;;;;4.23;63.35;101926.25;5016952;28;20053;-66
2022/01/30 00:54:37;;;;;;;71.68;39.63;;;;;;;4.21;63.31;101920.19;5017113;28;20065;-66
2022/01/30 00:57:04;;;;;;;78.57;42.00;;;;;;;4.18;63.51;101915.03;5016925;28;20046;-66
2022/01/30 00:59:31;;;;;;;74.32;41.58;;;;;;;4.15;63.11;101908.13;5016477;28;20049;-66
2022/01/30 01:01:58;;;;;;;74.40;40.80;;;;;;;4.12;63.33;101907.31;5016662;28;20116;-66
2022/01/30 01:04:25;;;;;;;74.25;38.72;;;;;;;4.06;63.26;101896.09;5016320;28;20072;-66
2022/01/30 01:06:51;;;;;;;74.07;39.83;;;;;;;4.02;62.88;101907.38;5016663;28;20116;-66
2022/01/30 01:09:22;;;;;;;73.63;38.75;;;;;;;3.99;62.98;101906.56;5016583;28;20116;-66
2022/01/30 01:25:20;;;;;;;76.65;41.15;;;;;;;4.08;62.98;101863.16;5016498;28;20052;-66
2022/01/30 01:27:46;;;;;;;69.95;40.28;;;;;;;4.09;62.81;101866.63;5016627;28;20453;-66
2022/01/30 01:30:13;;;;;;;71.65;40.13;;;;;;;4.08;62.84;101852.78;5016264;28;20049;-66
2022/01/30 01:32:40;;;;;;;76.47;40.50;;;;;;;4.06;63.10;101854.53;5016224;28;20117;-66
2022/01/30 01:35:07;;;;;;;80.22;40.95;;;;;;;4.06;63.00;101859.75;5016071;28;20470;-66
2022/01/30 01:37:34;;;;;;;77.95;41.67;;;;;;;4.07;63.18;101860.59;5016198;28;20050;-66
2022/01/30 01:40:01;;;;;;;74.88;41.40;;;;;;;4.03;63.39;101864.94;5016047;28;20042;-66
2022/01/30 01:42:32;;;;;;;76.22;42.53;;;;;;;4.03;63.40;101859.75;5015891;28;20046;-66
2022/01/30 01:45:00;;;;;;;74.88;39.92;;;;;;;4.01;63.16;101864.13;5015903;28;20050;-66
2022/01/30 01:47:31;;;;;;;70.22;38.92;;;;;;;3.98;63.45;101861.56;5015558;28;20045;-66
2022/01/30 01:49:58;;;;;;;72.82;38.85;;;;;;;3.94;63.20;101854.69;5015966;28;20049;-66
2022/01/30 01:52:26;;;;;;;77.20;41.75;;;;;;;4.00;63.24;101843.34;5015721;28;20050;-66
2022/01/30 01:54:56;;;;;;;77.40;42.78;;;;;;;4.03;63.22;101835.53;5015271;28;20050;-67
2022/01/30 01:57:24;;;;;;;78.97;41.20;;;;;;;4.03;63.31;101833.78;5015980;28;20057;-66
2022/01/30 01:59:51;;;;;;;77.15;41.75;;;;;;;4.05;63.35;101832.03;5014820;28;20045;-66
2022/01/30 02:02:19;;;;;;;78.75;42.17;;;;;;;4.06;63.36;101835.50;5015376;28;20046;-66
2022/01/30 02:04:47;;;;;;;76.10;41.30;;;;;;;4.07;63.50;101827.66;5015165;28;20490;-66
2022/01/30 02:07:26;;;;;;;78.80;42.42;;;;;;;4.04;63.87;101821.69;5015478;28;20056;-67
2022/01/30 02:09:53;;;;;;;80.28;41.25;;;;;;;4.05;63.96;101812.97;5015056;28;20053;-66
2022/01/30 02:24:27;;;;;;;66.07;35.95;;;;;;;4.02;63.93;101792.25;5015093;28;20065;-66
2022/01/30 02:26:53;;;;;;;71.22;36.28;;;;;;;3.99;63.99;101793.16;5015546;28;20490;-66
2022/01/30 02:29:20;;;;;;;75.53;38.42;;;;;;;3.93;63.92;101790.63;5014801;28;20495;-66
2022/01/30 02:31:47;;;;;;;61.25;35.58;;;;;;;3.93;63.74;101801.00;5015045;28;20042;-66
2022/01/30 02:34:14;;;;;;;72.45;37.25;;;;;;;3.88;63.69;101798.47;5014958;28;20474;-67
2022/01/30 02:36:47;;;;;;;66.05;34.70;;;;;;;3.85;63.67;101793.31;5014880;28;20453;-66
2022/01/30 02:39:14;;;;;;;68.47;33.22;;;;;;;3.86;63.73;101787.25;5014638;28;20468;-66
2022/01/30 02:41:41;;;;;;;66.65;36.30;;;;;;;3.85;63.76;101790.72;5015155;28;20107;-66
2022/01/30 02:44:18;;;;;;;69.63;38.38;;;;;;;3.75;63.61;101782.16;5014712;28;20049;-66
2022/01/30 02:46:51;;;;;;;71.40;38.80;;;;;;;3.67;63.48;101771.03;5014403;28;20045;-66
2022/01/30 02:52:02;;;;;;;74.43;38.65;;;;;;;3.59;63.36;101770.25;5014453;28;20100;-66
2022/01/30 02:54:30;;;;;;;74.47;38.75;;;;;;;3.54;63.18;101774.63;5014669;28;20057;-66
2022/01/30 02:56:58;;;;;;;70.88;37.83;;;;;;;3.47;63.17;101773.00;5014387;28;20052;-66
2022/01/30 02:59:25;;;;;;;67.80;37.50;;;;;;;3.42;62.81;101779.06;5014298;28;20491;-66
2022/01/30 03:01:51;;;;;;;78.40;40.13;;;;;;;3.39;62.95;101762.66;5014302;28;20057;-66
2022/01/30 03:04:19;;;;;;;70.57;39.85;;;;;;;3.36;62.83;101752.31;5014278;28;20046;-66
2022/01/30 03:06:46;;;;;;;74.65;41.08;;;;;;;3.41;62.39;101743.59;5014203;28;20045;-66
2022/01/30 03:09:13;;;;;;;77.68;41.42;;;;;;;3.36;62.51;101753.19;5014957;28;20052;-67
2022/01/30 03:11:40;;;;;;;75.15;39.15;;;;;;;3.31;62.58;101751.50;5013812;28;20045;-66
2022/01/30 03:14:06;;;;;;;76.88;40.15;;;;;;;3.27;62.55;101750.69;5013986;28;20513;-66
2022/01/30 03:16:33;;;;;;;78.65;39.70;;;;;;;3.23;62.84;101749.84;5014450;28;20080;-66
2022/01/30 03:19:01;;;;;;;74.55;39.13;;;;;;;3.26;62.27;101742.06;5013951;28;20045;-67
2022/01/30 03:21:28;;;;;;;73.68;39.25;;;;;;;3.30;62.17;101737.69;5014293;28;20045;-66
2022/01/30 03:23:54;;;;;;;67.05;37.17;;;;;;;3.29;62.27;101741.16;5014246;28;20049;-66
2022/01/30 03:26:21;;;;;;;71.55;38.33;;;;;;;3.25;62.14;101742.03;5014169;28;20545;-66
2022/01/30 03:28:50;;;;;;;72.28;37.65;;;;;;;3.19;62.23;101737.78;5013783;28;20414;-66
2022/01/30 03:31:19;;;;;;;67.43;37.95;;;;;;;3.18;61.90;101737.81;5014126;28;20061;-66
2022/01/30 03:33:46;;;;;;;71.60;38.88;;;;;;;3.20;61.89;101744.72;5013679;28;20050;-66
2022/01/30 03:36:13;;;;;;;70.40;38.15;;;;;;;3.17;61.84;101725.72;5013627;28;20096;-66
2022/01/30 03:38:39;;;;;;;67.57;37.97;;;;;;;3.16;62.05;101724.00;5014486;28;20092;-66
2022/01/30 03:41:06;;;;;;;71.60;38.30;;;;;;;3.16;61.99;101722.28;5013664;28;20506;-66
2022/01/30 03:43:33;;;;;;;71.60;37.88;;;;;;;3.19;61.81;101724.81;5013589;28;20045;-66
2022/01/30 03:45:59;;;;;;;61.85;36.28;;;;;;;3.18;61.80;101714.47;5013541;28;20137;-66
2022/01/30 03:48:26;;;;;;;65.47;36.17;;;;;;;3.14;61.98;101712.78;5013912;28;20120;-66
2022/01/30 03:50:53;;;;;;;66.47;36.80;;;;;;;3.10;61.81;101714.56;5013641;28;20046;-66
2022/01/30 03:53:20;;;;;;;63.22;33.42;;;;;;;3.08;61.61;101716.28;5013516;28;20050;-66
2022/01/30 03:55:46;;;;;;;63.25;34.20;;;;;;;3.10;61.86;101707.63;5013823;28;20050;-66
2022/01/30 03:58:14;;;;;;;63.97;33.03;;;;;;;3.16;61.84;101711.03;5013782;28;20446;-66
2022/01/30 04:00:41;;;;;;;64.43;33.85;;;;;;;3.14;62.09;101718.81;5013747;28;20046;-66
2022/01/30 04:03:08;;;;;;;58.15;33.38;;;;;;;3.23;61.88;101725.66;5012895;28;20042;-66
2022/01/30 04:05:35;;;;;;;65.07;32.50;;;;;;;3.26;62.10;101715.22;5012976;28;20046;-66
2022/01/30 04:08:05;;;;;;;69.65;33.72;;;;;;;3.33;62.09;101718.66;5013277;28;20046;-66
2022/01/30 04:10:32;;;;;;;61.40;32.42;;;;;;;3.40;61.98;101721.16;5013358;28;20050;-66
2022/01/30 04:12:59;;;;;;;62.45;33.58;;;;;;;3.40;62.12;101713.38;5012956;28;20557;-66
2022/01/30 04:15:27;;;;;;;68.43;33.38;;;;;;;3.39;62.50;101727.22;5012936;28;20506;-66
2022/01/30 04:17:53;;;;;;;58.42;32.63;;;;;;;3.39;62.77;101718.56;5013470;28;20057;-66
2022/01/30 04:20:20;;;;;;;61.22;32.83;;;;;;;3.42;62.55;101713.34;5012871;28;20049;-67
2022/01/30 04:22:47;;;;;;;62.03;30.75;;;;;;;3.39;62.89;101709.06;5014782;28;20050;-66
2022/01/30 04:25:14;;;;;;;57.55;29.63;;;;;;;3.42;62.67;101701.22;5017047;28;20057;-66
2022/01/30 04:27:41;;;;;;;66.05;30.17;;;;;;;3.46;62.54;101703.81;5016669;28;20490;-66
2022/01/30 04:30:09;;;;;;;61.40;30.20;;;;;;;3.37;62.75;101695.22;5016684;28;20072;-66
2022/01/30 04:32:41;;;;;;;67.38;33.88;;;;;;;3.39;62.76;101684.81;5016661;28;20057;-66
2022/01/30 04:35:13;;;;;;;70.75;35.45;;;;;;;3.36;62.79;101685.72;5016922;28;20414;-66
2022/01/30 04:40:35;;;;;;;62.15;32.03;;;;;;;3.36;63.07;101688.31;5016836;28;20042;-66
2022/01/30 04:56:59;;;;;;;55.90;28.63;;;;;;;3.19;62.97;101704.06;5016545;28;20054;-66
2022/01/30 05:04:55;;;;;;;59.83;30.95;;;;;;;3.08;62.50;101704.16;5015924;28;20046;-67
2022/01/30 05:09:48;;;;;;;53.22;29.08;;;;;;;3.08;62.31;101700.72;5016179;28;20042;-66
2022/01/30 05:12:22;;;;;;;57.08;29.15;;;;;;;3.05;62.35;101693.84;5016272;28;20056;-66
2022/01/30 05:14:49;;;;;;;57.08;28.77;;;;;;;2.96;62.64;101693.94;5015900;28;20391;-66
2022/01/30 05:17:16;;;;;;;61.97;29.67;;;;;;;2.99;62.28;101686.13;5016129;28;20053;-66
2022/01/30 05:19:43;;;;;;;59.40;30.38;;;;;;;3.05;61.94;101691.25;5016050;28;20092;-66
2022/01/30 05:22:10;;;;;;;57.08;29.75;;;;;;;2.99;62.04;101699.09;5015693;28;20050;-66
2022/01/30 05:24:37;;;;;;;60.05;29.88;;;;;;;2.98;62.38;101694.75;5015644;28;20094;-66
2022/01/30 05:27:04;;;;;;;59.58;28.98;;;;;;;2.94;62.21;101686.16;5015656;28;20049;-66
2022/01/30 05:29:31;;;;;;;60.10;29.42;;;;;;;2.89;62.22;101680.16;5033983;28;20046;-66
2022/01/30 05:31:58;;;;;;;54.10;28.55;;;;;;;2.80;62.44;101669.88;5016209;28;20119;-66
2022/01/30 05:34:25;;;;;;;56.10;28.33;;;;;;;2.78;62.20;101679.38;5015401;28;20065;-66
2022/01/30 05:36:52;;;;;;;58.45;28.38;;;;;;;2.82;62.10;101677.63;5015457;28;20046;-66
2022/01/30 05:39:19;;;;;;;58.67;29.30;;;;;;;2.77;62.03;101688.91;5016243;28;20048;-66
2022/01/30 05:41:46;;;;;;;53.42;29.10;;;;;;;2.77;62.04;101670.78;5015786;28;20049;-66
2022/01/30 05:44:18;;;;;;;54.42;28.25;;;;;;;2.75;61.83;101676.84;5015604;28;20045;-65
2022/01/30 05:46:52;;;;;;;54.67;28.00;;;;;;;2.71;61.83;101680.34;5015638;28;20076;-66
2022/01/30 05:49:21;;;;;;;53.83;28.33;;;;;;;2.66;61.84;101675.19;5015454;28;20041;-66
2022/01/30 05:51:48;;;;;;;54.28;28.30;;;;;;;2.70;61.58;101681.22;5016047;28;20049;-66
2022/01/30 05:54:14;;;;;;;54.00;27.83;;;;;;;2.69;61.47;101685.53;5015197;28;20050;-66
2022/01/30 05:56:41;;;;;;;56.15;27.08;;;;;;;2.67;61.75;101683.84;5015446;28;20052;-66
2022/01/30 05:59:08;;;;;;;51.17;27.92;;;;;;;2.70;61.44;101669.09;5015350;28;20046;-65
2022/01/30 06:01:34;;;;;;;52.33;26.92;;;;;;;2.64;61.50;101679.53;5015514;28;20052;-66
2022/01/30 06:04:01;;;;;;;55.92;27.83;;;;;;;2.61;61.46;101676.97;5015218;28;20088;-66
2022/01/30 06:06:28;;;;;;;60.50;29.85;;;;;;;2.69;61.49;101692.44;5014879;28;20077;-65
2022/01/30 06:09:18;;;;;;;56.50;29.27;;;;;;;2.74;61.54;101686.38;5015463;28;20050;-66
2022/01/30 06:11:50;;;;;;;59.55;30.52;;;;;;;2.85;61.54;101688.00;5015054;28;20056;-65
2022/01/30 06:14:17;;;;;;;56.70;31.02;;;;;;;2.90;61.44;101668.91;5014762;28;20050;-66
2022/01/30 06:16:44;;;;;;;57.97;28.98;;;;;;;2.92;61.42;101680.13;5015124;28;20088;-65
2022/01/30 06:19:11;;;;;;;55.53;29.17;;;;;;;2.89;61.69;101671.53;5014912;28;20050;-66
2022/01/30 06:21:38;;;;;;;52.22;28.63;;;;;;;2.88;61.72;101665.50;5014650;28;20055;-65
2022/01/30 06:24:05;;;;;;;54.22;27.92;;;;;;;2.83;61.98;101666.41;5014786;28;20050;-66
2022/01/30 06:26:31;;;;;;;57.50;28.42;;;;;;;2.80;61.97;101662.09;5014821;28;20042;-66
2022/01/30 06:28:58;;;;;;;53.45;28.65;;;;;;;2.78;61.93;101659.53;5014764;28;20050;-66
2022/01/30 06:31:26;;;;;;;54.10;27.48;;;;;;;2.74;62.12;101657.84;5014392;28;20058;-66
2022/01/30 06:33:53;;;;;;;52.17;27.15;;;;;;;2.75;62.24;101656.94;5014718;28;20049;-66
2022/01/30 06:36:20;;;;;;;55.38;29.08;;;;;;;2.64;62.09;101671.78;5014233;28;20126;-65
2022/01/30 06:38:47;;;;;;;56.38;27.40;;;;;;;2.59;61.90;101669.22;5014261;28;20080;-66
2022/01/30 06:41:14;;;;;;;51.72;27.33;;;;;;;2.59;61.70;101664.03;5014570;28;20046;-65
2022/01/30 06:43:40;;;;;;;52.22;27.42;;;;;;;2.58;61.87;101651.94;5014489;28;20053;-66
2022/01/30 06:46:10;;;;;;;48.25;26.98;;;;;;;2.50;61.77;101653.75;5014101;28;20386;-66
2022/01/30 06:48:37;;;;;;;57.00;29.55;;;;;;;2.44;61.71;101665.00;5014076;28;20053;-66
2022/01/30 06:51:07;;;;;;;56.58;30.88;;;;;;;2.43;61.39;101652.06;5014085;28;20056;-66
2022/01/30 06:53:34;;;;;;;63.78;32.15;;;;;;;2.47;60.93;101664.13;5014286;28;20068;-66
2022/01/30 06:56:00;;;;;;;58.90;31.25;;;;;;;2.42;61.01;101656.38;5013961;28;20517;-66
2022/01/30 06:58:27;;;;;;;59.78;32.35;;;;;;;2.37;61.20;101671.09;5014566;28;20066;-66
2022/01/30 07:00:54;;;;;;;52.95;28.25;;;;;;;2.39;61.12;101673.69;5013896;28;20093;-66
2022/01/30 07:03:20;;;;;;;59.08;29.08;;;;;;;2.40;60.67;101676.28;5013829;28;20042;-66
2022/01/30 07:05:48;;;;;;;56.28;27.90;;;;;;;2.37;60.71;101668.50;5013731;28;20487;-65
2022/01/30 07:08:15;;;;;;;52.97;28.65;;;;;;;2.32;60.70;101677.19;5014366;28;20058;-66
2022/01/30 07:10:42;;;;;;;56.53;28.20;;;;;;;2.38;60.39;101682.34;5014128;28;20050;-66
2022/01/30 07:13:11;;;;;;;53.60;27.75;;;;;;;2.41;60.35;101670.22;5014023;28;20421;-66
2022/01/30 07:15:37;;;;;;;53.50;26.98;;;;;;;2.50;60.15;101681.38;5014015;28;20050;-66
2022/01/30 07:18:04;;;;;;;57.00;26.90;;;;;;;2.54;60.03;101673.56;5013678;28;20521;-65
2022/01/30 07:20:31;;;;;;;51.92;27.15;;;;;;;2.58;59.81;101667.47;5013857;28;20103;-65
2022/01/30 07:22:57;;;;;;;51.22;26.27;;;;;;;2.59;59.99;101666.63;5013864;28;20104;-66
2022/01/30 07:25:24;;;;;;;63.50;27.95;;;;;;;2.64;59.80;101661.41;5013472;28;20046;-65
2022/01/30 07:27:50;;;;;;;52.03;27.25;;;;;;;2.71;59.63;101664.78;5013852;28;20050;-66
2022/01/30 07:30:17;;;;;;;54.53;27.08;;;;;;;2.70;59.71;101663.91;5013285;28;20422;-66
2022/01/30 07:32:44;;;;;;;50.10;26.90;;;;;;;2.70;59.62;101666.50;5012974;28;20046;-65
2022/01/30 07:35:10;;;;;;;56.38;28.58;;;;;;;2.78;59.49;101672.50;5012937;28;20049;-65
2022/01/30 07:37:37;;;;;;;58.45;28.63;;;;;;;2.93;59.20;101652.47;5012835;28;20438;-66
2022/01/30 07:40:05;;;;;;;52.60;27.65;;;;;;;3.06;58.93;101666.16;5012842;28;20049;-66
2022/01/30 07:42:33;;;;;;;52.22;27.38;;;;;;;3.24;58.43;101665.13;5012476;28;20045;-66
2022/01/30 07:45:00;;;;;;;58.95;29.30;;;;;;;3.43;58.06;101671.81;5012387;28;20494;-66
2022/01/30 07:47:27;;;;;;;58.55;28.55;;;;;;;3.62;58.07;101663.81;5012786;28;20045;-66
2022/01/30 07:49:53;;;;;;;59.45;29.30;;;;;;;3.77;57.75;101660.13;5012632;28;20052;-66
2022/01/30 07:52:21;;;;;;;55.70;28.13;;;;;;;3.94;57.49;101675.50;5012685;28;20046;-66
2022/01/30 07:54:48;;;;;;;57.03;29.38;;;;;;;4.06;57.34;101664.94;5012607;28;20054;-66
2022/01/30 07:57:17;;;;;;;57.10;29.05;;;;;;;4.20;57.18;101669.06;5011457;28;20104;-66
2022/01/30 07:59:43;;;;;;;55.15;28.55;;;;;;;4.23;57.42;101654.28;5012344;28;20045;-66
2022/01/30 08:02:10;;;;;;;53.78;27.15;;;;;;;4.35;57.30;101676.59;5012482;28;20050;-66
2022/01/30 08:04:37;;;;;;;55.83;29.05;;;;;;;4.52;57.31;101662.50;5012448;28;20473;-66
2022/01/30 08:07:04;;;;;;;55.00;29.15;;;;;;;4.63;56.92;101665.78;5012216;28;20042;-66
2022/01/30 08:09:35;;;;;;;53.58;28.65;;;;;;;4.79;56.90;101666.38;5012439;28;20100;-66
2022/01/30 08:15:52;;;;;;;50.47;27.38;;;;;;;5.29;56.25;101670.66;5012245;28;20497;-66
2022/01/30 08:18:19;;;;;;;54.08;28.50;;;;;;;5.48;56.08;101669.41;5012076;28;20050;-66
2022/01/30 08:20:46;;;;;;;53.97;27.67;;;;;;;5.70;55.41;101674.16;5012329;28;20056;-66
2022/01/30 08:23:15;;;;;;;57.20;28.42;;;;;;;5.77;55.55;101657.53;5011998;28;20046;-66
2022/01/30 08:25:42;;;;;;;57.38;27.02;;;;;;;6.01;55.44;101665.72;5012276;28;20081;-66
2022/01/30 08:28:10;;;;;;;54.05;29.58;;;;;;;6.23;55.14;101667.84;5012095;28;20046;-66
2022/01/30 08:30:36;;;;;;;54.35;26.88;;;;;;;6.41;54.56;101669.13;4973494;28;1123526;-66
2022/01/30 08:33:03;;;;;;;53.33;27.92;;;;;;;6.56;54.39;101667.91;5013108;28;20438;-66
2022/01/30 08:35:31;;;;;;;50.28;27.15;;;;;;;6.76;54.05;101673.47;5012750;28;20051;-66
2022/01/30 08:37:58;;;;;;;53.67;27.15;;;;;;;6.97;53.80;101652.94;5013055;28;20080;-66
2022/01/30 08:40:26;;;;;;;54.67;28.17;;;;;;;7.14;53.53;101671.59;5013086;28;20046;-66
2022/01/30 08:42:53;;;;;;;54.30;28.38;;;;;;;7.30;53.61;101655.50;5012678;28;20461;-66
2022/01/30 08:45:20;;;;;;;65.72;33.05;;;;;;;7.14;53.83;101666.38;5012733;28;20075;-66
2022/01/30 08:47:49;;;;;;;58.17;33.88;;;;;;;7.46;53.42;101667.22;5012908;28;20430;-66
2022/01/30 08:50:17;;;;;;;51.83;28.50;;;;;;;7.61;52.96;101667.69;5012638;28;20054;-66
2022/01/30 08:52:45;;;;;;;53.80;28.10;;;;;;;7.83;52.46;101671.38;5012669;28;20045;-66
2022/01/30 08:55:13;;;;;;;52.42;27.67;;;;;;;7.95;52.30;101669.31;5012861;28;20072;-66
2022/01/30 08:57:39;;;;;;;65.13;35.80;;;;;;;8.14;52.03;101673.03;5012796;28;20050;-66
2022/01/30 09:00:15;;;;;;;60.33;33.65;;;;;;;8.33;51.85;101665.47;5012766;28;20046;-66
2022/01/30 09:02:42;;;;;;;55.67;32.40;;;;;;;8.47;51.72;101662.44;5012488;28;20049;-66
2022/01/30 09:05:11;;;;;;;59.63;32.35;;;;;;;8.64;51.58;101663.63;5012384;28;20096;-66
2022/01/30 09:07:38;;;;;;;55.90;30.92;;;;;;;8.74;51.33;101670.25;5012476;28;20666;-66
2022/01/30 09:10:08;;;;;;;62.50;30.85;;;;;;;8.85;51.27;101661.19;5015799;28;20479;-66
2022/01/30 09:12:34;;;;;;;60.15;34.33;;;;;;;8.95;51.17;101673.03;5016277;28;20065;-66
2022/01/30 09:15:07;;;;;;;56.05;30.33;;;;;;;9.04;51.17;101677.97;5016209;28;20045;-66
2022/01/30 09:17:34;;;;;;;53.95;31.10;;;;;;;9.22;51.25;101676.47;5016132;28;20390;-68
2022/01/30 09:20:03;;;;;;;56.10;30.90;;;;;;;9.41;50.67;101673.19;5016075;28;20053;-65
2022/01/30 09:22:30;;;;;;;55.85;31.60;;;;;;;9.55;50.34;101672.66;5015756;28;20096;-68
2022/01/30 09:24:56;;;;;;;58.72;31.80;;;;;;;9.69;50.08;101685.22;5016220;28;20092;-68
2022/01/30 09:27:23;;;;;;;54.92;31.13;;;;;;;9.82;49.98;101683.03;5015701;28;20050;-68
2022/01/30 09:29:50;;;;;;;57.67;31.83;;;;;;;9.90;49.61;101673.97;5015776;28;20100;-67
2022/01/30 09:32:17;;;;;;;55.50;31.02;;;;;;;9.99;49.46;101677.13;5015602;28;20049;-68
2022/01/30 09:34:44;;;;;;;52.85;30.58;;;;;;;10.15;49.07;101682.63;5015537;28;20096;-67
2022/01/30 09:37:11;;;;;;;51.03;31.65;;;;;;;10.29;48.76;101677.66;5015478;28;20054;-67
2022/01/30 09:39:37;;;;;;;71.57;39.28;;;;;;;10.42;48.57;101671.06;5015800;28;20052;-67
2022/01/30 09:42:06;;;;;;;51.83;29.98;;;;;;;10.59;48.12;101678.22;5016686;28;20483;-68
2022/01/30 09:44:40;;;;;;;56.70;31.65;;;;;;;10.77;47.54;101668.69;5015561;28;20042;-68
2022/01/30 09:47:16;;;;;;;59.72;33.30;;;;;;;10.91;47.16;101657.59;5015611;28;20125;-65
2022/01/30 09:49:48;;;;;;;63.45;35.38;;;;;;;11.06;46.79;101663.13;5015266;28;20045;-67
2022/01/30 09:52:15;;;;;;;54.83;30.63;;;;;;;11.19;46.57;101655.56;5015513;28;20085;-67
2022/01/30 09:54:42;;;;;;;58.00;30.70;;;;;;;11.30;46.33;101668.19;5015157;28;20410;-67
2022/01/30 09:57:09;;;;;;;56.92;31.92;;;;;;;11.43;45.92;101667.56;5015440;28;20054;-66
2022/01/30 09:59:37;;;;;;;56.80;32.08;;;;;;;11.56;45.84;101673.13;5015379;28;20072;-67
2022/01/30 10:02:05;;;;;;;63.63;33.10;;;;;;;11.65;45.68;101661.34;5015310;28;20446;-66
2022/01/30 10:04:34;;;;;;;58.10;31.75;;;;;;;11.84;45.44;101660.47;5014792;28;20053;-67
2022/01/30 10:07:07;;;;;;;53.35;30.25;;;;;;;11.99;45.13;101651.03;5015231;28;20390;-67
2022/01/30 10:09:36;;;;;;;68.78;36.35;;;;;;;12.13;44.82;101661.75;5015274;28;20479;-66
2022/01/30 10:12:14;;;;;;;57.08;32.88;;;;;;;12.21;44.61;101645.56;5015472;28;20049;-66
2022/01/30 10:14:59;;;;;;;62.35;33.17;;;;;;;12.38;44.16;101666.66;5014684;28;20053;-66
2022/01/30 10:17:48;;;;;;;68.25;37.60;;;;;;;12.49;44.23;101636.31;5014929;28;20104;-66
2022/01/30 10:20:36;;;;;;;63.28;32.53;;;;;;;12.66;43.66;101644.22;5013560;28;20049;-65
2022/01/30 10:23:08;;;;;;;59.00;32.88;;;;;;;12.73;43.84;101639.47;5014482;28;20049;-67
2022/01/30 10:25:40;;;;;;;55.47;31.00;;;;;;;12.82;43.34;101639.00;5014772;28;20356;-67
2022/01/30 10:28:07;;;;;;;58.90;33.45;;;;;;;12.86;43.25;101642.31;5014787;28;20042;-67
2022/01/30 10:30:44;;;;;;;54.03;31.33;;;;;;;12.97;42.71;101640.00;5014508;28;20061;-67
2022/01/30 10:33:13;;;;;;;56.78;31.70;;;;;;;13.01;42.59;101623.06;5014445;28;20133;-68
2022/01/30 10:35:52;;;;;;;57.40;31.90;;;;;;;13.05;42.55;101624.63;5014758;28;20442;-67
2022/01/30 10:38:20;;;;;;;62.60;35.72;;;;;;;13.14;42.12;101622.44;5014604;28;20057;-67
2022/01/30 10:41:11;;;;;;;65.07;33.95;;;;;;;13.32;42.14;101617.94;5014205;28;20069;-66
2022/01/30 10:44:00;;;;;;;61.15;33.97;;;;;;;13.36;41.83;101607.16;5014210;28;20557;-65
2022/01/30 10:46:30;;;;;;;55.03;31.08;;;;;;;13.50;41.79;101597.69;5014004;28;20495;-65
2022/01/30 10:49:03;;;;;;;51.67;30.05;;;;;;;13.59;41.43;101610.34;5014398;28;20054;-65
2022/01/30 10:51:31;;;;;;;53.70;31.63;;;;;;;13.64;41.60;101605.69;5014203;28;20120;-65
2022/01/30 10:54:05;;;;;;;55.20;31.00;;;;;;;13.69;41.14;101602.78;5014051;28;20046;-65
2022/01/30 10:56:32;;;;;;;56.33;31.85;;;;;;;13.72;41.19;101592.06;5014238;28;20054;-65
2022/01/30 10:59:05;;;;;;;68.13;37.00;;;;;;;13.77;41.09;101592.66;5014294;28;20104;-65
2022/01/30 11:01:31;;;;;;;50.72;29.33;;;;;;;13.80;41.00;101599.53;5014164;28;20104;-67
2022/01/30 11:04:00;;;;;;;79.15;42.70;;;;;;;13.76;41.14;101584.81;5013952;28;20052;-67
2022/01/30 11:06:28;;;;;;;52.90;29.35;;;;;;;13.84;40.93;101575.53;5013862;28;20514;-65
2022/01/30 11:09:31;;;;;;;53.50;30.83;;;;;;;13.91;41.25;101567.28;5013736;28;20050;-65
2022/01/30 11:12:46;;;;;;;55.03;30.17;;;;;;;13.83;41.29;101565.09;5011816;28;20052;-66
2022/01/30 11:15:23;;;;;;;53.10;29.60;;;;;;;13.88;41.35;101579.69;5011963;28;20146;-66
2022/01/30 11:17:50;;;;;;;56.60;31.45;;;;;;;13.78;41.34;101553.94;5013594;28;20045;-66
2022/01/30 11:20:18;;;;;;;57.80;31.50;;;;;;;13.82;41.29;101574.75;5013895;28;20050;-66
2022/01/30 11:22:47;;;;;;;55.05;31.27;;;;;;;13.84;41.18;101569.41;5013584;28;20046;-67
2022/01/30 11:25:15;;;;;;;56.60;31.45;;;;;;;13.78;41.41;101575.88;5013687;28;20092;-66
2022/01/30 11:27:45;;;;;;;53.60;30.80;;;;;;;13.84;41.17;101566.75;5013527;28;20052;-66
2022/01/30 11:30:15;;;;;;;52.85;30.73;;;;;;;13.79;41.56;101559.13;5013584;28;20064;-67
2022/01/30 11:32:41;;;;;;;55.53;31.30;;;;;;;13.65;41.90;101565.19;5013299;28;20487;-66
2022/01/30 11:35:09;;;;;;;53.55;30.55;;;;;;;13.74;41.69;101536.56;5013667;28;20600;-66
2022/01/30 11:37:37;;;;;;;53.70;30.90;;;;;;;13.73;41.64;101559.47;5013346;28;20104;-66
2022/01/30 11:40:29;;;;;;;56.15;32.53;;;;;;;13.73;41.64;101532.25;5013611;28;20042;-66
2022/01/30 11:43:07;;;;;;;52.33;30.38;;;;;;;13.77;41.65;101539.06;5013025;28;20050;-66
2022/01/30 11:45:34;;;;;;;51.70;29.60;;;;;;;13.80;41.52;101539.72;5013166;28;20050;-66
2022/01/30 11:48:15;;;;;;;51.60;30.23;;;;;;;13.89;41.50;101525.16;5013529;28;20053;-66
2022/01/30 11:50:43;;;;;;;50.85;30.27;;;;;;;13.91;41.19;101527.69;5013420;28;20129;-66
2022/01/30 11:53:14;;;;;;;46.83;28.02;;;;;;;13.91;41.21;101517.16;5013455;28;20104;-66
2022/01/30 11:55:49;;;;;;;51.92;29.75;;;;;;;13.96;41.36;101512.44;5013146;28;20443;-66
2022/01/30 11:58:31;;;;;;;;;;;;;;;13.89;41.48;101511.97;5013953;28;20124;-66
2022/01/30 12:01:01;;;;;;;48.80;28.77;;;;;;;14.04;40.96;101507.56;5013098;28;19921;-66
2022/01/30 12:03:32;;;;;;;52.75;29.83;;;;;;;14.13;41.14;101493.84;5013282;28;20445;-66
2022/01/30 12:06:20;;;;;;;53.97;31.83;;;;;;;14.13;40.70;101472.72;5013269;28;20103;-66
2022/01/30 12:08:50;;;;;;;55.22;31.70;;;;;;;14.20;40.83;101478.47;5012953;28;20568;-66
2022/01/30 12:11:38;;;;;;;53.30;29.85;;;;;;;14.21;40.69;101472.25;5013313;28;20049;-66
2022/01/30 12:14:21;;;;;;;57.60;31.52;;;;;;;14.15;40.64;101462.91;5012935;28;20453;-66
2022/01/30 12:16:49;;;;;;;53.53;31.35;;;;;;;14.19;40.46;101466.22;5013257;28;20126;-66
2022/01/30 12:19:43;;;;;;;54.50;31.65;;;;;;;14.32;40.72;101453.09;5013153;28;20053;-66
2022/01/30 12:22:15;;;;;;;56.38;31.83;;;;;;;14.24;40.37;101439.53;5012840;28;20462;-66